Time;durP1;ratioP1;P1;durP2;ratioP2;P2;SDS_P1;SDS_P2;PMS_P1;PMS_P2;Temp;Humidity;BMP_temperature;BMP_pressure;BME280_temperature;BME280_humidity;BME280_pressure;Samples;Min_cycle;Max_cycle;Signal;HPM_P1;HPM_P2
2021/09/27 00:01:20;;;;;;;8.27;7.05;;;16.90;99.90;;;;;;5075124;28;20052;-85
2021/09/27 00:03:47;;;;;;;8.35;6.53;;;16.90;99.90;;;;;;5075239;28;20058;-85
2021/09/27 00:06:14;;;;;;;8.75;6.28;;;16.90;99.90;;;;;;5075108;28;20021;-86
2021/09/27 00:08:40;;;;;;;8.15;6.82;;;16.90;99.90;;;;;;5075115;28;20077;-85
2021/09/27 00:11:15;;;;;;;7.70;6.60;;;17.00;99.90;;;;;;5074711;28;20024;-85
2021/09/27 00:13:44;;;;;;;8.45;6.75;;;16.90;99.90;;;;;;5074765;28;20047;-85
2021/09/27 00:16:11;;;;;;;7.88;6.75;;;16.90;99.90;;;;;;5075174;28;20020;-86
2021/09/27 00:18:37;;;;;;;9.55;7.50;;;16.90;99.90;;;;;;5093195;28;20050;-85
2021/09/27 00:21:05;;;;;;;9.45;7.95;;;16.90;99.90;;;;;;5092980;28;20088;-85
2021/09/27 00:23:33;;;;;;;8.45;7.28;;;16.90;99.90;;;;;;5075061;28;20371;-85
2021/09/27 00:26:03;;;;;;;8.35;7.45;;;16.90;99.90;;;;;;5075154;28;20111;-84
2021/09/27 00:28:32;;;;;;;10.50;8.95;;;16.90;99.90;;;;;;5075070;28;20031;-86
2021/09/27 00:30:58;;;;;;;12.23;9.65;;;16.90;99.90;;;;;;5092826;28;20090;-86
2021/09/27 00:33:25;;;;;;;10.73;7.93;;;16.90;99.90;;;;;;5074552;28;20051;-85
2021/09/27 00:35:51;;;;;;;8.68;7.68;;;16.90;99.90;;;;;;5074810;28;20107;-85
2021/09/27 00:38:18;;;;;;;8.82;7.22;;;16.90;99.90;;;;;;5094768;28;20024;-86
2021/09/27 00:40:48;;;;;;;8.68;7.47;;;16.80;99.90;;;;;;5096640;28;20464;-85
2021/09/27 00:43:16;;;;;;;8.43;7.40;;;16.80;99.90;;;;;;5079086;28;20081;-85
2021/09/27 00:45:50;;;;;;;8.48;7.47;;;16.80;99.90;;;;;;5078853;28;20112;-84
2021/09/27 00:48:16;;;;;;;8.73;7.60;;;16.80;99.90;;;;;;5078969;28;20058;-86
2021/09/27 00:50:49;;;;;;;8.45;7.18;;;16.80;99.90;;;;;;5078570;28;20123;-85
2021/09/27 00:53:23;;;;;;;9.05;7.35;;;16.70;99.90;;;;;;5078693;28;20024;-86
2021/09/27 00:55:49;;;;;;;10.30;7.15;;;16.70;99.90;;;;;;5081091;28;20020;-85
2021/09/27 00:58:17;;;;;;;8.13;6.65;;;16.70;99.90;;;;;;5078345;28;20020;-85
2021/09/27 01:00:43;;;;;;;9.57;8.15;;;16.70;99.90;;;;;;5078629;28;20024;-85
2021/09/27 01:03:09;;;;;;;8.40;6.38;;;16.60;99.90;;;;;;5078067;28;20472;-85
2021/09/27 01:05:38;;;;;;;9.70;7.47;;;16.60;99.90;;;;;;5078095;28;20026;-85
2021/09/27 01:08:15;;;;;;;9.13;6.97;;;16.60;99.90;;;;;;5078277;28;20024;-85
2021/09/27 01:10:51;;;;;;;9.85;7.43;;;16.60;99.90;;;;;;5078173;28;20077;-86
2021/09/27 01:13:26;;;;;;;9.20;7.47;;;16.60;99.90;;;;;;5096419;28;20112;-85
2021/09/27 01:16:14;;;;;;;11.10;7.95;;;16.50;99.90;;;;;;5063223;28;20024;-86
2021/09/27 01:18:43;;;;;;;8.32;7.32;;;16.50;99.90;;;;;;5078170;28;20021;-86
2021/09/27 01:21:36;;;;;;;9.45;7.25;;;16.50;99.90;;;;;;5078153;28;20028;-85
2021/09/27 01:24:31;;;;;;;10.68;6.93;;;16.50;99.90;;;;;;5064293;28;20020;-86
2021/09/27 01:27:40;;;;;;;9.70;7.50;;;16.50;99.90;;;;;;5078099;28;20032;-86
2021/09/27 01:30:34;;;;;;;9.52;7.80;;;16.50;99.90;;;;;;5064424;28;20023;-86
2021/09/27 01:33:03;;;;;;;8.95;7.70;;;16.50;99.90;;;;;;5096297;28;20507;-86
2021/09/27 01:35:32;;;;;;;7.88;6.60;;;16.40;99.90;;;;;;5077800;28;20540;-86
2021/09/27 01:38:00;;;;;;;8.77;7.03;;;16.40;99.90;;;;;;5077739;28;20027;-86
2021/09/27 01:41:02;;;;;;;9.73;7.00;;;16.40;99.90;;;;;;5095910;28;20028;-85
2021/09/27 01:43:31;;;;;;;8.15;6.65;;;16.40;99.90;;;;;;5077660;28;20020;-86
2021/09/27 01:46:12;;;;;;;8.55;6.43;;;16.40;99.90;;;;;;5095993;28;20108;-85
2021/09/27 01:48:49;;;;;;;8.10;6.60;;;16.40;99.90;;;;;;5077570;28;20468;-87
2021/09/27 01:51:28;;;;;;;8.02;6.10;;;16.30;99.90;;;;;;5077422;28;20388;-86
2021/09/27 01:54:15;;;;;;;8.18;6.32;;;16.20;99.90;;;;;;5062661;28;20012;-86
2021/09/27 01:57:00;;;;;;;7.43;6.18;;;16.20;99.90;;;;;;5077598;28;20028;-86
2021/09/27 01:59:44;;;;;;;7.30;6.60;;;16.20;99.90;;;;;;5077362;28;20081;-86
2021/09/27 02:02:31;;;;;;;7.95;6.65;;;16.10;99.90;;;;;;5077334;28;20020;-85
2021/09/27 02:05:38;;;;;;;7.78;6.60;;;16.10;99.90;;;;;;5077399;28;20410;-86
2021/09/27 02:08:11;;;;;;;8.15;6.32;;;16.10;99.90;;;;;;5049851;28;20115;-86
2021/09/27 02:11:14;;;;;;;7.70;6.60;;;16.10;99.90;;;;;;5077086;28;20032;-86
2021/09/27 02:14:00;;;;;;;10.77;7.43;;;16.10;99.90;;;;;;5058866;28;20051;-85
2021/09/27 02:16:35;;;;;;;9.23;7.10;;;16.10;99.90;;;;;;5077103;28;20020;-86
2021/09/27 02:19:11;;;;;;;8.35;7.45;;;16.10;99.90;;;;;;5077128;28;20020;-86
2021/09/27 02:21:42;;;;;;;8.90;6.63;;;16.10;99.90;;;;;;5077037;28;20760;-86
2021/09/27 02:24:17;;;;;;;9.98;7.60;;;16.10;99.90;;;;;;5095104;28;20016;-86
2021/09/27 02:26:48;;;;;;;9.27;7.25;;;16.10;99.90;;;;;;5076946;28;20459;-86
2021/09/27 02:29:15;;;;;;;9.52;7.13;;;16.00;99.90;;;;;;5076702;28;20027;-86
2021/09/27 02:32:02;;;;;;;10.00;6.68;;;16.00;99.90;;;;;;5076748;28;20070;-86
2021/09/27 02:34:31;;;;;;;8.88;6.88;;;16.00;99.90;;;;;;5076808;28;20109;-86
2021/09/27 02:37:02;;;;;;;8.02;6.57;;;15.90;99.90;;;;;;5076793;28;20073;-86
2021/09/27 02:39:41;;;;;;;8.98;6.93;;;16.00;99.90;;;;;;5076568;28;20537;-85
2021/09/27 02:42:17;;;;;;;9.70;7.40;;;16.00;99.90;;;;;;5076217;28;20112;-85
2021/09/27 02:44:46;;;;;;;10.82;8.85;;;16.00;99.90;;;;;;5076659;28;20035;-85
2021/09/27 02:47:23;;;;;;;9.02;7.72;;;15.90;99.90;;;;;;5076149;28;20387;-85
2021/09/27 02:49:55;;;;;;;10.55;8.32;;;15.90;99.90;;;;;;5062271;28;20031;-86
2021/09/27 02:52:21;;;;;;;9.35;8.15;;;15.90;99.90;;;;;;5076160;28;20081;-85
2021/09/27 02:55:07;;;;;;;10.85;9.15;;;15.90;99.90;;;;;;5076363;28;20024;-86
2021/09/27 02:57:49;;;;;;;11.65;9.27;;;16.00;99.90;;;;;;5076237;28;20052;-85
2021/09/27 03:00:46;;;;;;;10.60;9.25;;;15.90;99.90;;;;;;5076123;28;20099;-86
2021/09/27 03:03:29;;;;;;;9.90;8.48;;;15.90;99.90;;;;;;5075940;28;20020;-85
2021/09/27 03:06:13;;;;;;;11.40;8.23;;;15.90;99.90;;;;;;5061178;28;20024;-85
2021/09/27 03:09:13;;;;;;;10.10;7.85;;;15.90;99.90;;;;;;5076006;28;20031;-86
2021/09/27 03:11:53;;;;;;;10.05;8.98;;;15.80;99.90;;;;;;5075870;28;20118;-85
2021/09/27 03:14:49;;;;;;;9.70;7.85;;;15.80;99.90;;;;;;5075786;28;20079;-85
2021/09/27 03:17:48;;;;;;;9.13;8.15;;;15.80;99.90;;;;;;5076026;28;20494;-86
2021/09/27 03:20:53;;;;;;;11.32;8.73;;;15.80;99.90;;;;;;5043714;28;20021;-85
2021/09/27 03:23:43;;;;;;;10.77;8.30;;;15.70;99.90;;;;;;5072545;28;20464;-85
2021/09/27 03:26:41;;;;;;;8.52;7.22;;;15.80;99.90;;;;;;5075485;28;20048;-86
2021/09/27 03:29:55;;;;;;;10.95;7.82;;;15.70;99.90;;;;;;5055588;28;20119;-85
2021/09/27 03:32:38;;;;;;;11.02;7.30;;;15.70;99.90;;;;;;5000288;28;20065;-86
2021/09/27 03:35:17;;;;;;;8.35;7.20;;;15.70;99.90;;;;;;5042595;28;20220;-86
2021/09/27 03:38:12;;;;;;;9.32;6.95;;;15.70;99.90;;;;;;5058176;28;20036;-86
2021/09/27 03:40:52;;;;;;;9.20;7.10;;;15.70;99.90;;;;;;5075643;28;20043;-85
2021/09/27 03:43:20;;;;;;;9.10;7.18;;;15.60;99.90;;;;;;5075339;28;20047;-86
2021/09/27 03:46:03;;;;;;;9.05;7.40;;;15.60;99.90;;;;;;5075585;28;20016;-86
2021/09/27 03:48:32;;;;;;;9.18;7.30;;;15.60;99.90;;;;;;5075381;28;20020;-85
2021/09/27 03:51:05;;;;;;;8.55;7.40;;;15.60;99.90;;;;;;5075401;28;20127;-85
2021/09/27 03:53:40;;;;;;;;;;;15.60;99.90;;;;;;5075845;28;20026;-86
2021/09/27 03:56:18;;;;;;;8.57;6.82;;;15.50;99.90;;;;;;5075375;28;19904;-86
2021/09/27 03:59:12;;;;;;;10.15;7.68;;;15.50;99.90;;;;;;5075226;28;20456;-86
2021/09/27 04:01:57;;;;;;;9.23;7.03;;;15.50;99.90;;;;;;5043823;28;20036;-85
2021/09/27 04:04:43;;;;;;;9.57;7.72;;;15.50;99.90;;;;;;5093243;28;20023;-86
2021/09/27 04:07:19;;;;;;;8.80;7.82;;;15.50;99.90;;;;;;5075439;28;20027;-86
2021/09/27 04:10:05;;;;;;;16.13;11.32;;;15.60;99.90;;;;;;5077145;28;20016;-86
2021/09/27 04:12:40;;;;;;;12.50;10.82;;;15.60;99.90;;;;;;5074359;28;20070;-85
2021/09/27 04:15:30;;;;;;;15.40;12.88;;;15.70;99.90;;;;;;5093592;28;20463;-85
2021/09/27 04:17:56;;;;;;;14.48;10.73;;;15.80;99.90;;;;;;5060526;28;20017;-86
2021/09/27 04:20:41;;;;;;;12.27;10.75;;;15.90;99.90;;;;;;5075180;28;20028;-86
2021/09/27 04:23:18;;;;;;;11.88;9.43;;;16.00;99.90;;;;;;5075129;28;20020;-86
2021/09/27 04:26:04;;;;;;;12.82;10.43;;;16.00;99.90;;;;;;5058621;28;20017;-86
2021/09/27 04:28:54;;;;;;;16.40;11.52;;;16.00;99.90;;;;;;5014685;28;20040;-85
2021/09/27 04:31:58;;;;;;;14.48;10.75;;;16.10;99.90;;;;;;5071968;28;20038;-85
2021/09/27 04:34:43;;;;;;;12.27;9.32;;;16.20;99.90;;;;;;5074044;28;20457;-86
2021/09/27 04:37:09;;;;;;;12.60;10.43;;;16.20;99.90;;;;;;5065734;28;20571;-86
2021/09/27 04:39:40;;;;;;;11.95;9.70;;;16.20;99.90;;;;;;5072773;28;20423;-86
2021/09/27 04:42:32;;;;;;;11.95;9.73;;;16.20;99.90;;;;;;5066963;28;20454;-87
2021/09/27 04:45:25;;;;;;;13.48;11.50;;;16.20;99.90;;;;;;5068052;28;20048;-88
2021/09/27 04:48:16;;;;;;;15.63;11.90;;;16.30;99.90;;;;;;5066429;28;20055;-86
2021/09/27 04:50:50;;;;;;;11.82;9.60;;;16.30;99.90;;;;;;5065371;28;20081;-86
2021/09/27 04:53:35;;;;;;;11.85;9.57;;;16.30;99.90;;;;;;5073552;28;20081;-86
2021/09/27 04:56:37;;;;;;;13.15;10.45;;;16.40;99.90;;;;;;5066699;28;20122;-85
2021/09/27 04:59:16;;;;;;;13.35;11.65;;;16.40;99.90;;;;;;5042053;28;20028;-85
2021/09/27 05:02:12;;;;;;;15.30;11.40;;;16.40;99.90;;;;;;5082902;28;20028;-85
2021/09/27 05:04:53;;;;;;;11.27;9.90;;;16.40;99.90;;;;;;5072149;28;20054;-86
2021/09/27 05:07:39;;;;;;;12.90;10.27;;;16.40;99.90;;;;;;5070345;28;20483;-85
2021/09/27 05:10:23;;;;;;;11.60;9.38;;;16.40;99.90;;;;;;5071956;28;20020;-85
2021/09/27 05:13:06;;;;;;;11.02;9.52;;;16.30;99.90;;;;;;5064230;28;20040;-85
2021/09/27 05:16:04;;;;;;;12.68;10.32;;;16.30;99.90;;;;;;5072117;28;20441;-85
2021/09/27 05:18:41;;;;;;;13.20;10.38;;;16.30;99.90;;;;;;5071546;28;20032;-85
2021/09/27 05:21:41;;;;;;;12.15;10.45;;;16.30;99.90;;;;;;5072105;28;20032;-85
2021/09/27 05:24:15;;;;;;;12.93;9.88;;;16.30;99.90;;;;;;5067406;28;20374;-86
2021/09/27 05:26:57;;;;;;;11.75;9.63;;;16.30;99.90;;;;;;5074814;28;20024;-85
2021/09/27 05:29:42;;;;;;;11.80;10.18;;;16.30;99.90;;;;;;5075046;28;20489;-86
2021/09/27 05:32:31;;;;;;;13.50;10.75;;;16.20;99.90;;;;;;5071680;28;20116;-85
2021/09/27 05:35:21;;;;;;;11.75;10.13;;;16.20;99.90;;;;;;5072588;28;20034;-85
2021/09/27 05:38:05;;;;;;;13.10;9.95;;;16.30;99.90;;;;;;5068789;28;20024;-85
2021/09/27 05:40:57;;;;;;;12.02;9.77;;;16.30;99.90;;;;;;5077475;28;20024;-85
2021/09/27 05:43:51;;;;;;;10.70;9.02;;;16.30;99.90;;;;;;5074858;28;20025;-86
2021/09/27 05:46:45;;;;;;;12.38;10.15;;;16.40;99.90;;;;;;5077508;28;20046;-85
2021/09/27 05:49:42;;;;;;;11.98;9.32;;;16.40;99.90;;;;;;5072731;28;20040;-85
2021/09/27 05:52:41;;;;;;;12.07;9.60;;;16.40;99.90;;;;;;5066827;28;20028;-85
2021/09/27 05:55:51;;;;;;;11.48;8.90;;;16.40;99.90;;;;;;5089451;28;20530;-85
2021/09/27 05:58:39;;;;;;;13.32;9.18;;;16.40;99.90;;;;;;5012215;28;20156;-86
2021/09/27 06:01:29;;;;;;;12.95;10.45;;;16.40;99.90;;;;;;5002626;28;20115;-86
2021/09/27 06:04:09;;;;;;;12.05;9.27;;;16.40;99.90;;;;;;5050923;28;20032;-85
2021/09/27 06:06:47;;;;;;;12.38;9.95;;;16.50;99.90;;;;;;5075847;28;20024;-86
2021/09/27 06:09:30;;;;;;;10.80;9.38;;;16.50;99.90;;;;;;5076584;28;20440;-86
2021/09/27 06:12:02;;;;;;;14.13;9.57;;;16.50;99.90;;;;;;5070248;28;20028;-86
2021/09/27 06:14:36;;;;;;;11.57;8.77;;;16.50;99.90;;;;;;5049743;28;20059;-86
2021/09/27 06:17:39;;;;;;;11.38;8.73;;;16.50;99.90;;;;;;5053216;28;20074;-86
2021/09/27 06:20:34;;;;;;;10.38;8.55;;;16.60;99.90;;;;;;5047836;28;20025;-85
2021/09/27 06:23:12;;;;;;;9.70;8.40;;;16.60;99.90;;;;;;5053313;28;20033;-86
2021/09/27 06:25:51;;;;;;;10.60;9.05;;;16.60;99.90;;;;;;5052404;28;20021;-86
2021/09/27 06:28:41;;;;;;;10.52;8.50;;;16.60;99.90;;;;;;5052252;28;20025;-85
2021/09/27 06:31:40;;;;;;;10.00;8.32;;;16.60;99.90;;;;;;5053314;28;20496;-86
2021/09/27 06:34:25;;;;;;;11.95;8.10;;;16.60;99.90;;;;;;5047825;28;20641;-84
2021/09/27 06:36:54;;;;;;;10.75;9.27;;;16.60;99.90;;;;;;5048058;28;20071;-84
2021/09/27 06:39:26;;;;;;;13.65;11.57;;;16.70;99.90;;;;;;5052506;28;20021;-85
2021/09/27 06:41:53;;;;;;;13.20;10.73;;;16.70;99.90;;;;;;5052555;28;20032;-84
2021/09/27 06:44:24;;;;;;;15.00;12.00;;;16.70;99.90;;;;;;5050205;28;20025;-84
2021/09/27 06:46:51;;;;;;;15.45;12.85;;;16.70;99.90;;;;;;5051694;28;20112;-84
2021/09/27 06:49:18;;;;;;;14.82;13.27;;;16.60;99.90;;;;;;5052434;28;20025;-85
2021/09/27 06:51:46;;;;;;;14.50;11.90;;;16.70;99.90;;;;;;5044345;28;20029;-84
2021/09/27 06:54:15;;;;;;;16.10;14.30;;;16.60;99.90;;;;;;5044717;28;20467;-84
2021/09/27 06:56:43;;;;;;;14.30;12.35;;;16.60;99.90;;;;;;5053220;28;20464;-86
2021/09/27 06:59:10;;;;;;;14.65;11.77;;;16.60;99.90;;;;;;5053737;28;20025;-86
2021/09/27 07:01:37;;;;;;;14.75;11.80;;;16.70;99.90;;;;;;5052331;28;20028;-86
2021/09/27 07:04:06;;;;;;;13.35;10.38;;;16.70;99.90;;;;;;5046914;28;20071;-86
2021/09/27 07:06:34;;;;;;;11.43;9.30;;;16.70;99.90;;;;;;5050699;28;20083;-86
2021/09/27 07:09:05;;;;;;;13.93;11.73;;;16.80;99.90;;;;;;5052120;28;20079;-86
2021/09/27 07:11:31;;;;;;;13.65;11.25;;;16.90;99.90;;;;;;5051808;28;20041;-86
2021/09/27 07:14:00;;;;;;;13.00;9.73;;;17.00;99.90;;;;;;5046685;28;20053;-86
2021/09/27 07:16:26;;;;;;;14.90;10.68;;;17.20;99.90;;;;;;5049931;28;20103;-86
2021/09/27 07:18:52;;;;;;;13.23;10.82;;;17.40;99.90;;;;;;5053079;28;20067;-86
2021/09/27 07:21:24;;;;;;;10.68;9.18;;;17.50;99.90;;;;;;5053196;28;20392;-86
2021/09/27 07:23:53;;;;;;;11.30;9.23;;;17.70;99.90;;;;;;5053073;28;20035;-86
2021/09/27 07:26:20;;;;;;;16.95;12.40;;;17.80;99.90;;;;;;5043693;28;20018;-86
2021/09/27 07:28:52;;;;;;;17.58;14.15;;;17.90;99.90;;;;;;5051931;28;20071;-86
2021/09/27 07:31:28;;;;;;;17.23;14.75;;;18.00;99.90;;;;;;5052817;28;20037;-86
2021/09/27 07:33:57;;;;;;;18.70;14.63;;;18.10;99.90;;;;;;5051701;28;20020;-86
2021/09/27 07:36:25;;;;;;;16.55;13.65;;;18.20;99.90;;;;;;5045498;28;20078;-86
2021/09/27 07:38:54;;;;;;;14.05;12.60;;;18.30;99.90;;;;;;5052728;28;20017;-86
2021/09/27 07:41:21;;;;;;;16.55;14.05;;;18.30;99.90;;;;;;5051668;28;20036;-87
2021/09/27 07:43:47;;;;;;;15.38;12.35;;;18.40;99.90;;;;;;5051215;28;20029;-86
2021/09/27 07:46:18;;;;;;;16.90;13.60;;;18.40;99.90;;;;;;5043633;28;20410;-86
2021/09/27 07:48:46;;;;;;;16.05;13.90;;;18.40;99.90;;;;;;5043253;28;20060;-86
2021/09/27 07:51:12;;;;;;;15.65;12.13;;;18.40;99.90;;;;;;5051379;28;20033;-85
2021/09/27 07:53:38;;;;;;;15.45;13.15;;;18.40;99.90;;;;;;5042811;28;20052;-85
2021/09/27 07:56:04;;;;;;;16.23;14.20;;;18.40;99.90;;;;;;5046256;28;20063;-85
2021/09/27 07:58:30;;;;;;;15.13;12.73;;;18.40;99.90;;;;;;5052464;28;20029;-86
2021/09/27 08:00:57;;;;;;;14.35;12.18;;;18.40;99.90;;;;;;5051574;28;20053;-85
2021/09/27 08:03:23;;;;;;;15.48;13.35;;;18.50;99.90;;;;;;5051634;28;20032;-86
2021/09/27 08:05:50;;;;;;;15.10;10.93;;;18.50;99.90;;;;;;5045068;28;20067;-86
2021/09/27 08:08:17;;;;;;;15.68;13.18;;;18.60;99.90;;;;;;5052481;28;20020;-86
2021/09/27 08:10:44;;;;;;;16.98;14.82;;;18.60;99.90;;;;;;5043037;28;20021;-86
2021/09/27 08:13:12;;;;;;;15.70;13.95;;;18.60;99.90;;;;;;5054729;28;20064;-85
2021/09/27 08:15:41;;;;;;;15.77;14.13;;;18.70;99.90;;;;;;5062396;28;20025;-85
2021/09/27 08:18:13;;;;;;;17.55;13.10;;;18.70;99.90;;;;;;5071504;28;20013;-86
2021/09/27 08:20:44;;;;;;;17.48;14.85;;;18.80;99.90;;;;;;5072649;28;20485;-86
2021/09/27 08:23:12;;;;;;;13.82;12.38;;;18.90;99.90;;;;;;5068940;28;20033;-85
2021/09/27 08:25:39;;;;;;;13.50;12.02;;;19.00;99.90;;;;;;5065446;28;20024;-85
2021/09/27 08:28:11;;;;;;;14.50;12.82;;;19.10;99.90;;;;;;5070407;28;20024;-85
2021/09/27 08:30:50;;;;;;;15.35;11.80;;;19.30;99.90;;;;;;5070122;28;20520;-84
2021/09/27 08:33:19;;;;;;;15.02;11.32;;;19.40;99.90;;;;;;5066728;28;20021;-84
2021/09/27 08:35:47;;;;;;;14.85;12.15;;;19.60;99.90;;;;;;5067747;28;20179;-84
2021/09/27 08:38:23;;;;;;;16.40;13.65;;;19.60;99.90;;;;;;5069848;28;20025;-85
2021/09/27 08:41:16;;;;;;;13.93;12.13;;;19.70;99.90;;;;;;5068101;28;20021;-85
2021/09/27 08:44:04;;;;;;;;;;;19.70;99.90;;;;;;5019302;28;20106;-85
2021/09/27 08:46:33;;;;;;;15.45;12.00;;;19.60;99.90;;;;;;5068352;28;19999;-85
2021/09/27 08:49:42;;;;;;;14.55;12.65;;;19.60;99.90;;;;;;5068361;28;20024;-85
2021/09/27 08:52:14;;;;;;;15.27;10.95;;;19.60;99.90;;;;;;5068241;28;20086;-85
2021/09/27 08:54:41;;;;;;;13.40;11.68;;;19.60;99.90;;;;;;5069470;28;20017;-85
2021/09/27 08:57:36;;;;;;;14.43;11.48;;;19.70;99.90;;;;;;5069823;28;20463;-85
2021/09/27 09:00:26;;;;;;;14.90;12.02;;;19.80;99.90;;;;;;5062294;28;20048;-85
2021/09/27 09:02:55;;;;;;;12.85;10.77;;;19.90;99.90;;;;;;5069238;28;20021;-84
2021/09/27 09:05:42;;;;;;;12.80;10.10;;;19.90;99.90;;;;;;5071762;28;20059;-85
2021/09/27 09:08:33;;;;;;;12.30;10.95;;;20.00;99.90;;;;;;5071844;28;20020;-85
2021/09/27 09:11:25;;;;;;;12.15;10.45;;;20.00;99.90;;;;;;5071961;28;20472;-85
2021/09/27 09:14:01;;;;;;;14.85;11.25;;;20.00;99.90;;;;;;5068959;28;20048;-85
2021/09/27 09:16:31;;;;;;;11.48;10.27;;;19.80;99.90;;;;;;5071180;28;20020;-85
2021/09/27 09:19:00;;;;;;;12.43;10.68;;;19.80;99.90;;;;;;5072362;28;20036;-84
2021/09/27 09:21:57;;;;;;;12.25;10.95;;;19.80;99.90;;;;;;5071989;28;20024;-85
2021/09/27 09:24:29;;;;;;;11.30;10.15;;;19.80;99.90;;;;;;5061171;28;20032;-84
2021/09/27 09:27:03;;;;;;;12.05;10.00;;;20.00;99.90;;;;;;5058040;28;20028;-85
2021/09/27 09:29:35;;;;;;;12.73;11.40;;;20.20;99.90;;;;;;5071449;28;20013;-84
2021/09/27 09:32:11;;;;;;;13.50;10.77;;;20.10;99.90;;;;;;5072135;28;20025;-85
2021/09/27 09:34:37;;;;;;;11.60;10.40;;;20.10;99.90;;;;;;5068504;28;20377;-84
2021/09/27 09:37:11;;;;;;;13.00;9.95;;;20.00;99.90;;;;;;5070189;28;20025;-84
2021/09/27 09:39:55;;;;;;;11.73;10.30;;;20.00;99.90;;;;;;5072141;28;20029;-85
2021/09/27 09:42:26;;;;;;;14.02;9.98;;;20.20;99.90;;;;;;5071677;28;20047;-85
2021/09/27 09:44:54;;;;;;;14.00;9.93;;;20.30;99.90;;;;;;5068367;28;20025;-84
2021/09/27 09:47:20;;;;;;;9.27;8.02;;;20.60;99.90;;;;;;5071908;28;20026;-83
2021/09/27 09:50:00;;;;;;;11.68;9.20;;;20.90;99.90;;;;;;5072128;28;20117;-84
2021/09/27 09:52:39;;;;;;;12.00;9.07;;;21.30;99.90;;;;;;5071469;28;20105;-83
2021/09/27 09:55:29;;;;;;;11.07;9.88;;;21.50;99.90;;;;;;5064464;28;20115;-84
2021/09/27 09:58:12;;;;;;;10.27;8.80;;;21.40;99.90;;;;;;5064631;28;20028;-85
2021/09/27 10:00:41;;;;;;;9.90;7.88;;;21.20;99.90;;;;;;5069055;28;20103;-85
2021/09/27 10:03:09;;;;;;;11.43;7.50;;;21.00;99.90;;;;;;5071938;28;20104;-84
2021/09/27 10:05:44;;;;;;;11.52;7.35;;;21.00;99.90;;;;;;5064961;28;20025;-85
2021/09/27 10:08:24;;;;;;;10.68;7.28;;;21.30;99.90;;;;;;5071456;28;20027;-85
2021/09/27 10:11:14;;;;;;;9.18;6.80;;;21.40;99.90;;;;;;5063569;28;20316;-84
2021/09/27 10:13:52;;;;;;;9.50;6.30;;;21.40;99.90;;;;;;5080719;28;20044;-85
2021/09/27 10:16:31;;;;;;;10.38;6.97;;;21.40;99.90;;;;;;5066067;28;20024;-84
2021/09/27 10:19:31;;;;;;;8.73;5.88;;;21.30;99.90;;;;;;5070018;28;20693;-85
2021/09/27 10:22:24;;;;;;;11.52;6.18;;;21.20;99.90;;;;;;5085822;28;20085;-84
2021/09/27 10:25:01;;;;;;;8.35;5.53;;;21.00;99.90;;;;;;5066969;28;20023;-86
2021/09/27 10:27:49;;;;;;;8.43;6.05;;;20.90;99.90;;;;;;5074311;28;20403;-85
2021/09/27 10:30:24;;;;;;;7.97;5.82;;;20.80;99.90;;;;;;5092375;28;20085;-86
2021/09/27 10:33:02;;;;;;;6.45;5.30;;;20.70;99.90;;;;;;5066715;28;20089;-86
2021/09/27 10:35:40;;;;;;;6.35;4.85;;;20.70;99.90;;;;;;5067398;28;20384;-85
2021/09/27 10:38:17;;;;;;;6.43;4.75;;;20.60;99.90;;;;;;5073717;28;20146;-84
2021/09/27 10:40:51;;;;;;;6.85;4.70;;;20.50;99.90;;;;;;5072941;28;20032;-86
2021/09/27 10:43:25;;;;;;;7.18;4.68;;;20.50;99.90;;;;;;5072305;28;20531;-85
2021/09/27 10:46:04;;;;;;;6.78;4.70;;;20.50;99.90;;;;;;5068151;28;20024;-86
2021/09/27 10:48:37;;;;;;;6.38;4.15;;;20.40;99.90;;;;;;5072957;28;20020;-85
2021/09/27 10:51:11;;;;;;;6.20;3.90;;;20.40;99.90;;;;;;5073275;28;20590;-85
2021/09/27 10:54:04;;;;;;;6.93;3.85;;;20.30;99.90;;;;;;5072617;28;20020;-85
2021/09/27 10:56:43;;;;;;;;;;;20.40;99.90;;;;;;5071144;28;20016;-85
2021/09/27 10:59:27;;;;;;;6.53;3.90;;;20.30;99.90;;;;;;5097841;28;19911;-85
2021/09/27 11:02:30;;;;;;;5.95;3.97;;;20.40;99.90;;;;;;5091493;28;20028;-85
2021/09/27 11:05:29;;;;;;;6.03;3.78;;;20.60;99.90;;;;;;5084407;28;20070;-85
2021/09/27 11:08:07;;;;;;;6.13;3.50;;;20.60;99.90;;;;;;5071009;28;20038;-86
2021/09/27 11:10:57;;;;;;;5.22;3.80;;;20.70;99.90;;;;;;5070248;28;20024;-85
2021/09/27 11:13:43;;;;;;;6.57;4.25;;;20.90;99.90;;;;;;5061749;28;20053;-84
2021/09/27 11:16:35;;;;;;;5.43;4.03;;;20.90;99.90;;;;;;5066076;28;20029;-84
2021/09/27 11:19:11;;;;;;;5.28;3.38;;;21.00;99.90;;;;;;5067557;28;20051;-85
2021/09/27 11:21:52;;;;;;;5.43;4.10;;;21.00;99.90;;;;;;5072822;28;20134;-84
2021/09/27 11:24:44;;;;;;;5.28;4.15;;;21.00;99.90;;;;;;5077717;28;20036;-85
2021/09/27 11:27:30;;;;;;;6.40;4.40;;;21.00;99.90;;;;;;5065973;28;20432;-84
2021/09/27 11:30:22;;;;;;;7.60;4.18;;;21.00;99.90;;;;;;5084565;28;20024;-85
2021/09/27 11:32:58;;;;;;;7.07;4.05;;;21.00;99.90;;;;;;5008353;28;20112;-85
2021/09/27 11:35:38;;;;;;;8.60;3.53;;;21.00;99.90;;;;;;5067318;28;20024;-85
2021/09/27 11:38:27;;;;;;;6.53;3.97;;;21.20;99.90;;;;;;5073161;28;20032;-85
2021/09/27 11:41:22;;;;;;;6.07;3.25;;;21.30;99.90;;;;;;5065397;28;20024;-85
2021/09/27 11:44:08;;;;;;;5.85;3.58;;;21.50;99.90;;;;;;5066604;28;20031;-85
2021/09/27 11:47:00;;;;;;;5.82;3.10;;;21.70;99.90;;;;;;5072718;28;20101;-85
2021/09/27 11:49:50;;;;;;;6.90;3.33;;;21.90;99.90;;;;;;5088657;28;20032;-85
2021/09/27 11:52:29;;;;;;;6.68;3.30;;;21.90;99.90;;;;;;5071416;28;20024;-85
2021/09/27 11:54:56;;;;;;;6.35;3.13;;;21.90;99.90;;;;;;5070557;28;20021;-85
2021/09/27 11:57:31;;;;;;;6.07;3.53;;;21.90;99.90;;;;;;5089911;28;20039;-84
2021/09/27 12:00:03;;;;;;;4.00;2.40;;;21.80;99.90;;;;;;5090420;28;20012;-85
2021/09/27 12:03:06;;;;;;;4.30;2.47;;;21.80;99.90;;;;;;5070760;28;20028;-85
2021/09/27 12:05:48;;;;;;;9.20;3.10;;;21.80;99.90;;;;;;5070147;28;20024;-85
2021/09/27 12:08:31;;;;;;;6.40;2.53;;;21.70;99.90;;;;;;5083855;28;20449;-86
2021/09/27 12:11:14;;;;;;;4.28;2.70;;;21.60;99.90;;;;;;5079130;28;20064;-85
2021/09/27 12:13:58;;;;;;;3.67;2.50;;;21.60;99.90;;;;;;5069779;28;20051;-87
2021/09/27 12:16:32;;;;;;;3.78;2.40;;;21.50;99.90;;;;;;5072459;28;20384;-86
2021/09/27 12:19:22;;;;;;;4.15;2.15;;;21.40;99.90;;;;;;5072532;28;20080;-85
2021/09/27 12:22:05;;;;;;;4.28;2.28;;;21.30;99.90;;;;;;5054335;28;20028;-85
2021/09/27 12:24:42;;;;;;;8.50;2.83;;;21.40;99.90;;;;;;5071548;28;20111;-86
2021/09/27 12:27:19;;;;;;;5.65;2.25;;;21.30;99.90;;;;;;5088512;28;20016;-86
2021/09/27 12:30:04;;;;;;;4.75;2.00;;;21.20;99.90;;;;;;5065381;28;20020;-86
2021/09/27 12:32:54;;;;;;;2.90;1.90;;;21.30;99.90;;;;;;5089261;28;20046;-86
2021/09/27 12:35:29;;;;;;;4.47;2.30;;;21.40;99.90;;;;;;5086783;28;20031;-87
2021/09/27 12:38:01;;;;;;;3.15;1.95;;;21.50;99.90;;;;;;5094449;28;20040;-86
2021/09/27 12:40:46;;;;;;;3.83;2.30;;;21.60;99.90;;;;;;5075574;28;20031;-86
2021/09/27 12:43:32;;;;;;;3.65;1.92;;;21.80;99.90;;;;;;5078033;28;20037;-85
2021/09/27 12:46:12;;;;;;;5.30;1.80;;;21.90;99.90;;;;;;5066958;28;20495;-85
2021/09/27 12:48:46;;;;;;;3.58;2.03;;;22.00;99.90;;;;;;5077638;28;20035;-86
2021/09/27 12:51:51;;;;;;;2.97;2.10;;;22.00;99.90;;;;;;5077321;28;20067;-85
2021/09/27 12:54:24;;;;;;;5.28;1.95;;;22.00;99.90;;;;;;4998097;28;20252;-85
2021/09/27 12:56:57;;;;;;;4.13;1.92;;;22.00;99.90;;;;;;5078459;28;20511;-85
2021/09/27 12:59:29;;;;;;;4.93;2.17;;;22.00;99.90;;;;;;5075840;28;20020;-86
2021/09/27 13:02:07;;;;;;;3.70;1.90;;;21.90;99.90;;;;;;5092908;28;20065;-86
2021/09/27 13:04:54;;;;;;;3.72;2.42;;;21.80;99.90;;;;;;5077312;28;20023;-86
2021/09/27 13:07:23;;;;;;;6.70;2.28;;;21.70;99.90;;;;;;5076269;28;20020;-85
2021/09/27 13:10:09;;;;;;;5.00;2.30;;;21.70;99.90;;;;;;5077536;28;20012;-86
2021/09/27 13:12:39;;;;;;;2.92;1.98;;;21.60;99.90;;;;;;5092877;28;20498;-85
2021/09/27 13:15:12;;;;;;;5.00;2.13;;;21.50;99.90;;;;;;5074940;28;20058;-85
2021/09/27 13:17:56;;;;;;;4.82;2.47;;;21.40;99.90;;;;;;5075049;28;20040;-85
2021/09/27 13:20:31;;;;;;;4.30;2.75;;;21.20;99.90;;;;;;5073191;28;20028;-86
2021/09/27 13:22:58;;;;;;;5.72;2.90;;;20.80;99.90;;;;;;5075180;28;20028;-85
2021/09/27 13:25:31;;;;;;;4.75;2.35;;;20.50;99.90;;;;;;5075071;28;20031;-85
2021/09/27 13:28:22;;;;;;;3.67;2.10;;;20.20;99.90;;;;;;5075473;28;20043;-86
2021/09/27 13:31:14;;;;;;;4.70;2.60;;;20.00;99.90;;;;;;5067663;28;20031;-85
2021/09/27 13:33:47;;;;;;;5.47;2.70;;;19.80;99.90;;;;;;5075025;28;20104;-86
2021/09/27 13:36:42;;;;;;;5.22;2.40;;;19.80;99.90;;;;;;5091301;28;20024;-86
2021/09/27 13:39:21;;;;;;;;;;;19.70;99.90;;;;;;5093482;28;20016;-87
2021/09/27 13:41:50;;;;;;;4.40;2.17;;;19.60;99.90;;;;;;5073623;28;20311;-85